createdAt,value
2018-07-23T00:05:57.377Z,101024.00
2018-07-23T00:12:00.943Z,101024.00
2018-07-23T00:18:04.465Z,101021.00
2018-07-23T00:24:07.712Z,101022.00
2018-07-23T00:30:11.341Z,101022.00
2018-07-23T00:36:14.673Z,101027.00
2018-07-23T00:42:18.184Z,101036.00
2018-07-23T00:48:22.123Z,101035.00
2018-07-23T00:54:25.437Z,101026.00
2018-07-23T01:00:28.970Z,101021.00
2018-07-23T01:06:32.322Z,100991.00
2018-07-23T01:12:35.897Z,101037.00
2018-07-23T01:18:39.274Z,101034.00
2018-07-23T01:24:42.938Z,101026.00
2018-07-23T01:30:47.940Z,101035.00
2018-07-23T01:36:51.373Z,101030.00
2018-07-23T01:42:54.637Z,101035.00
2018-07-23T01:48:58.519Z,101039.00
2018-07-23T01:55:02.706Z,101040.00
2018-07-23T02:01:10.586Z,101033.00
2018-07-23T02:07:14.011Z,101040.00
2018-07-23T02:13:18.911Z,101041.00
2018-07-23T02:19:22.590Z,101042.00
2018-07-23T02:25:26.285Z,101053.00
2018-07-23T02:31:29.746Z,101049.00
2018-07-23T02:37:33.186Z,101045.00
2018-07-23T02:43:37.382Z,101046.00
2018-07-23T02:49:41.537Z,101015.00
2018-07-23T02:55:45.036Z,101056.00
2018-07-23T03:01:48.226Z,101048.00
2018-07-23T03:07:51.581Z,101042.00
2018-07-23T03:13:55.109Z,101062.00
2018-07-23T03:19:59.417Z,101057.00
2018-07-23T03:26:03.054Z,101055.00
2018-07-23T03:32:06.495Z,101061.00
2018-07-23T03:38:09.883Z,101070.00
2018-07-23T03:44:13.526Z,101081.00
2018-07-23T03:50:17.264Z,101079.00
2018-07-23T03:56:21.034Z,101087.00
2018-07-23T04:02:24.518Z,101085.00
2018-07-23T04:08:30.285Z,101088.00
2018-07-23T04:14:34.296Z,101090.00
2018-07-23T04:20:37.683Z,101090.00
2018-07-23T04:26:42.407Z,101091.00
2018-07-23T04:32:45.692Z,101089.00
2018-07-23T04:38:49.654Z,101093.00
2018-07-23T04:44:53.158Z,101089.00
2018-07-23T04:50:56.744Z,101091.00
2018-07-23T04:57:00.559Z,101092.00
2018-07-23T05:03:04.036Z,101104.00
2018-07-23T05:09:10.993Z,101110.00
2018-07-23T05:15:14.529Z,101112.00
2018-07-23T05:21:22.145Z,101109.00
2018-07-23T05:27:25.505Z,101105.00
2018-07-23T05:33:29.378Z,101110.00
2018-07-23T05:39:33.518Z,101108.00
2018-07-23T05:45:36.794Z,101110.00
2018-07-23T05:51:40.334Z,101105.00
2018-07-23T05:57:44.047Z,101108.00
2018-07-23T06:03:47.533Z,101102.00
2018-07-23T06:09:50.887Z,101104.00
2018-07-23T06:15:54.443Z,101106.00
2018-07-23T06:21:58.707Z,101106.00
2018-07-23T06:28:02.845Z,101111.00
2018-07-23T06:34:07.368Z,101114.00
2018-07-23T06:40:11.966Z,101119.00
2018-07-23T06:46:15.558Z,101118.00
2018-07-23T06:52:19.069Z,101119.00
2018-07-23T06:58:22.594Z,101119.00
2018-07-23T07:04:26.959Z,101117.00
2018-07-23T07:10:30.932Z,101131.00
2018-07-23T07:16:34.342Z,101129.00
2018-07-23T07:22:37.854Z,101124.00
2018-07-23T07:28:42.144Z,101126.00
2018-07-23T07:34:46.642Z,101127.00
2018-07-23T07:40:50.182Z,101123.00
2018-07-23T07:46:53.648Z,101123.00
2018-07-23T07:52:57.078Z,101119.00
2018-07-23T07:59:00.294Z,101110.00
2018-07-23T08:05:04.659Z,101112.00
2018-07-23T08:11:08.529Z,101113.00
2018-07-23T08:17:12.005Z,101113.00
2018-07-23T08:23:15.520Z,101120.00
2018-07-23T08:29:19.016Z,101120.00
2018-07-23T08:35:22.345Z,101126.00
2018-07-23T08:41:25.964Z,101124.00
2018-07-23T08:47:29.550Z,101125.00
2018-07-23T08:53:33.026Z,101124.00
2018-07-23T08:59:37.570Z,101120.00
2018-07-23T09:05:41.790Z,101085.00
2018-07-23T09:11:48.348Z,101120.00
2018-07-23T09:17:51.730Z,101120.00
2018-07-23T09:23:55.609Z,101122.00
2018-07-23T09:29:58.833Z,101113.00
2018-07-23T09:36:02.334Z,101130.00
2018-07-23T09:42:05.942Z,101121.00
2018-07-23T09:48:09.211Z,101115.00
2018-07-23T09:54:12.537Z,101124.00
2018-07-23T10:00:20.350Z,101112.00
2018-07-23T10:06:23.655Z,101123.00
2018-07-23T10:12:26.874Z,101124.00
2018-07-23T10:18:30.622Z,101120.00
2018-07-23T10:24:34.710Z,101128.00
2018-07-23T10:30:38.314Z,101113.00
2018-07-23T10:36:41.696Z,101122.00
2018-07-23T10:42:48.770Z,101113.00
2018-07-23T10:48:52.221Z,101111.00
2018-07-23T10:54:55.642Z,101118.00
2018-07-23T11:00:59.297Z,101107.00
2018-07-23T11:07:03.065Z,101119.00
2018-07-23T11:13:06.715Z,101115.00
2018-07-23T11:19:10.036Z,101117.00
2018-07-23T11:25:38.702Z,101111.00
2018-07-23T13:23:25.251Z,101055.00
2018-07-23T13:29:28.601Z,101049.00
2018-07-23T13:35:31.986Z,101052.00
2018-07-23T13:41:35.372Z,101049.00
2018-07-23T13:47:38.790Z,101050.00
2018-07-23T14:00:17.615Z,101054.00
2018-07-23T14:06:21.628Z,101051.00
2018-07-23T14:12:25.079Z,101036.00
2018-07-23T14:18:28.606Z,101029.00
2018-07-23T14:24:32.347Z,101033.00
2018-07-23T14:30:36.464Z,101029.00
2018-07-23T14:36:40.054Z,101019.00
2018-07-23T14:42:43.368Z,101022.00
2018-07-23T14:48:46.734Z,101013.00
2018-07-23T14:54:50.366Z,100963.00
2018-07-23T15:00:54.616Z,101008.00
2018-07-23T15:06:58.028Z,101001.00
2018-07-23T15:13:01.382Z,101000.00
2018-07-23T15:19:04.864Z,101004.00
2018-07-23T15:25:09.148Z,100992.00
2018-07-23T15:31:12.442Z,100985.00
2018-07-23T15:37:15.963Z,100998.00
2018-07-23T15:43:19.417Z,100992.00
2018-07-23T15:49:23.822Z,100986.00
2018-07-23T15:55:28.321Z,100985.00
2018-07-23T16:01:31.812Z,100995.00
2018-07-23T16:07:35.118Z,100988.00
2018-07-23T16:13:38.542Z,100986.00
2018-07-23T16:19:43.054Z,100985.00
2018-07-23T16:25:46.597Z,100972.00
2018-07-23T16:31:49.992Z,100975.00
2018-07-23T16:37:53.450Z,100976.00
2018-07-23T16:43:57.044Z,100973.00
2018-07-23T16:50:01.434Z,100963.00
2018-07-23T16:56:04.877Z,100972.00
2018-07-23T17:02:08.432Z,100974.00
2018-07-23T17:08:11.895Z,100971.00
2018-07-23T17:14:15.221Z,100961.00
2018-07-23T17:20:22.022Z,100968.00
2018-07-23T17:26:26.162Z,100968.00
2018-07-23T17:32:29.585Z,100973.00
2018-07-23T17:38:32.966Z,100973.00
2018-07-23T17:44:36.382Z,100970.00
2018-07-23T17:50:39.838Z,100973.00
2018-07-23T17:56:43.494Z,100974.00
2018-07-23T18:02:46.857Z,100972.00
2018-07-23T18:08:50.235Z,100972.00
2018-07-23T18:14:53.919Z,100968.00
2018-07-23T18:20:57.688Z,100970.00
2018-07-23T18:27:01.867Z,100965.00
2018-07-23T18:33:06.149Z,100968.00
2018-07-23T18:39:13.002Z,100966.00
2018-07-23T18:45:18.136Z,100968.00
2018-07-23T18:51:48.146Z,100964.00
2018-07-23T18:57:52.257Z,100971.00
